Time;durP1;ratioP1;P1;durP2;ratioP2;P2;SDS_P1;SDS_P2;PMS_P1;PMS_P2;Temp;Humidity;BMP_temperature;BMP_pressure;BME280_temperature;BME280_humidity;BME280_pressure;Samples;Min_cycle;Max_cycle;Signal;HPM_P1;HPM_P2
2021/03/09 00:01:56;;;;;;;39.80;30.73;;;10.10;56.80;;;;;;5060142;28;20028;-50
2021/03/09 00:04:21;;;;;;;40.30;31.00;;;10.20;56.90;;;;;;5056521;28;20040;-54
2021/03/09 00:06:47;;;;;;;37.13;29.27;;;10.20;56.70;;;;;;5062422;28;20166;-49
2021/03/09 00:09:12;;;;;;;43.67;31.43;;;10.20;56.90;;;;;;5053418;28;20037;-52
2021/03/09 00:11:38;;;;;;;38.13;30.83;;;10.20;56.70;;;;;;5055687;28;20064;-51
2021/03/09 00:14:03;;;;;;;38.40;30.47;;;10.20;56.80;;;;;;5056031;28;20492;-50
2021/03/09 00:16:29;;;;;;;40.00;31.03;;;10.20;56.60;;;;;;5055520;28;20044;-49
2021/03/09 00:19:22;;;;;;;39.67;31.37;;;10.20;56.60;;;;;;5052845;28;20053;-51
2021/03/09 00:21:48;;;;;;;39.23;30.57;;;10.20;56.80;;;;;;5052307;28;20041;-55
2021/03/09 00:24:14;;;;;;;44.43;32.23;;;10.10;56.60;;;;;;5052915;28;20086;-51
2021/03/09 00:26:40;;;;;;;40.53;31.93;;;10.20;56.50;;;;;;5058324;28;20049;-54
2021/03/09 00:29:05;;;;;;;44.50;32.03;;;10.20;56.70;;;;;;5056483;28;20025;-54
2021/03/09 00:31:31;;;;;;;40.33;31.13;;;10.20;56.80;;;;;;5059948;28;20055;-54
2021/03/09 00:33:56;;;;;;;37.60;30.07;;;10.10;57.00;;;;;;5053309;28;20029;-51
2021/03/09 00:36:22;;;;;;;38.57;30.67;;;10.10;57.20;;;;;;5055464;28;20045;-53
2021/03/09 00:38:47;;;;;;;42.10;30.30;;;10.00;57.50;;;;;;5053481;28;20521;-51
2021/03/09 00:41:13;;;;;;;42.70;32.73;;;10.00;57.60;;;;;;5056489;28;20068;-49
2021/03/09 00:43:39;;;;;;;38.83;31.63;;;9.90;58.00;;;;;;5058253;28;20089;-51
2021/03/09 00:46:04;;;;;;;38.80;30.30;;;9.90;57.80;;;;;;5059105;28;20498;-50
2021/03/09 00:48:37;;;;;;;39.87;32.33;;;9.90;57.90;;;;;;5072853;28;20051;-50
2021/03/09 00:51:03;;;;;;;40.77;31.37;;;9.90;58.20;;;;;;5055568;28;20139;-49
2021/03/09 00:53:29;;;;;;;43.53;31.73;;;9.70;58.60;;;;;;5076882;28;20462;-50
2021/03/09 00:55:54;;;;;;;41.60;32.40;;;9.80;58.10;;;;;;5059881;28;20394;-51
2021/03/09 00:58:20;;;;;;;40.73;32.73;;;9.80;58.10;;;;;;5059732;28;20033;-50
2021/03/09 01:00:46;;;;;;;40.03;32.90;;;9.80;58.10;;;;;;5054920;28;20041;-50
2021/03/09 01:03:11;;;;;;;41.83;32.70;;;9.80;58.30;;;;;;5060277;28;20052;-52
2021/03/09 01:05:37;;;;;;;38.27;31.70;;;9.70;58.50;;;;;;5058658;28;20386;-53
2021/03/09 01:08:02;;;;;;;38.83;30.10;;;9.70;58.80;;;;;;5060189;28;20139;-49
2021/03/09 01:10:28;;;;;;;40.03;30.60;;;9.70;58.70;;;;;;5055298;28;20045;-50
2021/03/09 01:12:54;;;;;;;42.00;30.97;;;9.70;59.10;;;;;;5064047;28;20047;-50
2021/03/09 01:15:19;;;;;;;40.80;30.93;;;9.60;59.40;;;;;;5057531;28;20040;-52
2021/03/09 01:17:45;;;;;;;38.93;29.27;;;9.60;59.30;;;;;;5064709;28;20101;-48
2021/03/09 01:20:11;;;;;;;39.50;30.10;;;9.50;59.70;;;;;;5055696;28;20037;-50
2021/03/09 01:22:37;;;;;;;38.60;30.50;;;9.50;60.40;;;;;;5058612;28;20059;-53
2021/03/09 01:25:04;;;;;;;40.67;30.57;;;9.50;60.00;;;;;;5060783;28;20033;-50
2021/03/09 01:27:29;;;;;;;39.93;31.40;;;9.50;60.40;;;;;;5053642;28;20063;-53
2021/03/09 01:29:55;;;;;;;38.90;30.27;;;9.50;60.50;;;;;;5058638;28;20494;-48
2021/03/09 01:32:21;;;;;;;40.77;30.80;;;9.40;60.50;;;;;;5058803;28;20033;-49
2021/03/09 01:34:47;;;;;;;40.93;32.00;;;9.40;60.70;;;;;;5062116;28;20052;-52
2021/03/09 01:37:13;;;;;;;39.73;29.77;;;9.50;60.50;;;;;;5057972;28;20037;-48
2021/03/09 01:39:38;;;;;;;41.63;30.53;;;9.40;60.70;;;;;;5060965;28;20453;-51
2021/03/09 01:42:09;;;;;;;42.10;30.93;;;9.40;60.80;;;;;;5054214;28;20058;-50
2021/03/09 01:44:36;;;;;;;42.33;30.70;;;9.40;61.10;;;;;;5060872;28;20044;-53
2021/03/09 01:47:02;;;;;;;40.80;31.30;;;9.50;60.80;;;;;;5065917;28;20044;-52
2021/03/09 01:49:32;;;;;;;42.37;30.60;;;9.30;61.20;;;;;;5057626;28;20056;-54
2021/03/09 01:51:58;;;;;;;41.00;30.73;;;9.40;61.20;;;;;;5057445;28;20270;-51
2021/03/09 01:54:25;;;;;;;40.20;29.73;;;9.40;61.10;;;;;;5060390;28;20102;-52
2021/03/09 01:56:51;;;;;;;41.10;30.60;;;9.40;61.60;;;;;;5056120;28;20449;-51
2021/03/09 01:59:18;;;;;;;38.53;30.23;;;9.40;61.60;;;;;;5056388;28;20394;-51
2021/03/09 02:01:44;;;;;;;41.47;30.93;;;9.30;61.70;;;;;;5057662;28;20037;-52
2021/03/09 02:11:00;;;;;;;37.13;29.37;;;9.20;63.10;;;;;;5008836;28;20080;-50
2021/03/09 02:13:55;;;;;;;39.40;29.17;;;9.20;63.00;;;;;;5057139;28;20028;-54
2021/03/09 02:16:25;;;;;;;38.42;29.27;;;9.20;63.20;;;;;;5059958;28;20067;-55
2021/03/09 02:19:28;;;;;;;38.10;29.17;;;9.20;62.40;;;;;;5057263;28;20085;-50
2021/03/09 02:22:23;;;;;;;38.50;28.77;;;9.30;63.00;;;;;;4994826;28;20447;-51
2021/03/09 02:25:25;;;;;;;37.33;28.60;;;9.30;63.20;;;;;;5071605;28;20120;-49
2021/03/09 02:27:57;;;;;;;38.67;28.57;;;9.20;63.20;;;;;;5038049;28;20102;-50
2021/03/09 02:30:35;;;;;;;37.57;28.77;;;9.20;62.70;;;;;;5052148;28;20100;-50
2021/03/09 02:33:10;;;;;;;36.30;29.57;;;9.10;63.50;;;;;;5060327;28;20509;-48
2021/03/09 02:35:42;;;;;;;38.28;29.13;;;9.20;63.00;;;;;;5055782;28;20500;-49
2021/03/09 02:38:11;;;;;;;37.20;28.30;;;9.20;63.00;;;;;;5060897;28;20384;-48
2021/03/09 02:40:37;;;;;;;37.17;29.07;;;9.20;62.90;;;;;;5053081;28;20036;-50
2021/03/09 02:43:11;;;;;;;40.63;29.80;;;9.20;63.00;;;;;;5055316;28;20040;-49
2021/03/09 02:45:37;;;;;;;41.10;29.97;;;9.20;63.20;;;;;;5052013;28;20099;-49
2021/03/09 02:48:05;;;;;;;37.30;28.40;;;9.20;63.20;;;;;;5054521;28;20041;-49
2021/03/09 02:50:33;;;;;;;37.73;28.63;;;9.20;63.10;;;;;;5051809;28;20474;-49
2021/03/09 02:53:13;;;;;;;37.73;29.50;;;9.10;63.50;;;;;;5056688;28;20127;-49
2021/03/09 02:55:40;;;;;;;37.70;28.60;;;9.10;63.80;;;;;;5054932;28;20120;-48
2021/03/09 02:58:08;;;;;;;40.17;29.53;;;9.10;64.00;;;;;;5062163;28;20032;-51
2021/03/09 03:00:37;;;;;;;42.60;28.97;;;9.10;63.50;;;;;;5054222;28;20390;-54
2021/03/09 03:03:09;;;;;;;35.90;27.40;;;9.10;63.70;;;;;;5060653;28;20033;-53
2021/03/09 03:05:36;;;;;;;37.87;29.03;;;9.10;63.70;;;;;;5054201;28;20059;-52
2021/03/09 03:08:07;;;;;;;37.33;28.17;;;9.10;63.50;;;;;;5057598;28;20094;-49
2021/03/09 03:10:35;;;;;;;34.50;27.90;;;9.10;63.90;;;;;;5055160;28;20102;-50
2021/03/09 03:13:06;;;;;;;35.17;27.60;;;9.10;64.00;;;;;;5057956;28;20135;-49
2021/03/09 03:15:33;;;;;;;39.17;28.27;;;9.00;64.30;;;;;;5056973;28;20094;-52
2021/03/09 03:18:00;;;;;;;39.87;27.70;;;9.00;64.20;;;;;;5056190;28;20036;-49
2021/03/09 03:20:26;;;;;;;40.77;28.37;;;9.10;65.10;;;;;;5053108;28;20068;-49
2021/03/09 03:22:53;;;;;;;38.03;27.50;;;9.10;64.30;;;;;;5059632;28;20403;-57
2021/03/09 03:25:19;;;;;;;41.40;28.83;;;9.10;64.40;;;;;;5057310;28;20372;-53
2021/03/09 03:27:47;;;;;;;34.10;27.53;;;9.10;64.30;;;;;;5057397;28;20040;-51
2021/03/09 03:30:15;;;;;;;39.80;29.03;;;9.10;64.40;;;;;;5055574;28;20045;-54
2021/03/09 03:39:24;;;;;;;41.00;28.67;;;9.00;64.70;;;;;;5006372;28;20054;-52
2021/03/09 03:41:50;;;;;;;39.10;28.87;;;9.00;64.90;;;;;;5058824;28;20029;-50
2021/03/09 03:44:15;;;;;;;38.43;29.57;;;9.00;64.70;;;;;;5056907;28;20040;-50
2021/03/09 03:46:41;;;;;;;42.43;30.30;;;9.00;64.60;;;;;;5057252;28;20506;-50
2021/03/09 03:49:08;;;;;;;35.80;27.47;;;9.10;64.40;;;;;;5059099;28;20047;-50
2021/03/09 03:51:39;;;;;;;37.27;27.40;;;9.10;64.40;;;;;;5052203;28;20075;-50
2021/03/09 03:54:31;;;;;;;36.27;27.63;;;9.10;64.40;;;;;;5055281;28;20076;-51
2021/03/09 03:57:11;;;;;;;35.33;26.90;;;9.20;65.00;;;;;;5052856;28;20444;-49
2021/03/09 03:59:40;;;;;;;37.53;28.70;;;9.10;64.70;;;;;;5055162;28;20035;-49
2021/03/09 04:02:11;;;;;;;36.97;28.00;;;9.10;64.40;;;;;;5065412;28;20036;-50
2021/03/09 04:04:38;;;;;;;37.30;28.60;;;9.10;64.90;;;;;;5055620;28;20059;-49
2021/03/09 04:07:06;;;;;;;39.10;28.43;;;9.00;64.80;;;;;;5054149;28;20790;-51
2021/03/09 04:09:32;;;;;;;34.90;26.43;;;9.10;64.70;;;;;;5059012;28;20091;-49
2021/03/09 04:12:00;;;;;;;37.33;28.10;;;9.10;64.80;;;;;;5060342;28;20047;-50
2021/03/09 04:14:27;;;;;;;37.73;29.50;;;9.10;65.00;;;;;;5058678;28;20050;-50
2021/03/09 04:16:54;;;;;;;38.53;27.67;;;9.10;64.90;;;;;;5056711;28;20030;-53
2021/03/09 04:22:41;;;;;;;40.20;28.30;;;9.10;65.30;;;;;;5004590;28;20032;-55
2021/03/09 04:25:08;;;;;;;39.23;28.73;;;9.00;64.80;;;;;;5054918;28;20033;-51
2021/03/09 04:27:35;;;;;;;36.67;27.90;;;9.00;64.80;;;;;;5059950;28;20109;-50
2021/03/09 04:30:00;;;;;;;40.73;30.23;;;9.10;64.70;;;;;;5054234;28;20036;-50
2021/03/09 04:32:27;;;;;;;38.00;29.30;;;9.20;64.70;;;;;;5050859;28;20047;-50
2021/03/09 04:34:54;;;;;;;38.13;27.73;;;9.20;64.60;;;;;;5062956;28;20033;-54
2021/03/09 04:37:20;;;;;;;40.27;30.97;;;9.20;64.40;;;;;;5063915;28;20033;-49
2021/03/09 04:39:46;;;;;;;36.93;30.60;;;9.30;64.30;;;;;;5067409;28;20056;-49
2021/03/09 04:42:12;;;;;;;39.87;30.67;;;9.20;64.10;;;;;;5064070;28;20086;-52
2021/03/09 04:44:39;;;;;;;41.10;29.53;;;9.10;64.40;;;;;;5056416;28;20092;-48
2021/03/09 04:47:07;;;;;;;38.43;29.50;;;9.10;64.50;;;;;;5063035;28;20047;-51
2021/03/09 04:49:35;;;;;;;41.43;29.87;;;9.10;64.80;;;;;;5058304;28;20051;-51
2021/03/09 04:52:01;;;;;;;42.30;30.90;;;9.00;65.10;;;;;;5064199;28;20237;-48
2021/03/09 04:54:27;;;;;;;42.47;30.43;;;9.00;65.00;;;;;;5058436;28;20127;-52
2021/03/09 04:56:53;;;;;;;41.63;29.60;;;9.00;65.00;;;;;;5072366;28;20033;-49
2021/03/09 04:59:19;;;;;;;46.97;31.57;;;9.00;64.90;;;;;;5054744;28;20151;-52
2021/03/09 05:01:45;;;;;;;41.90;28.93;;;9.00;65.40;;;;;;5063444;28;20479;-49
2021/03/09 05:04:11;;;;;;;39.17;30.07;;;8.90;65.30;;;;;;5077958;28;20047;-53
2021/03/09 05:06:37;;;;;;;42.63;31.90;;;8.90;65.50;;;;;;5056551;28;20044;-52
2021/03/09 05:09:04;;;;;;;42.13;31.00;;;8.90;65.20;;;;;;5055678;28;20032;-50
2021/03/09 05:11:30;;;;;;;42.50;31.37;;;9.00;65.10;;;;;;5056694;28;20109;-49
2021/03/09 05:13:56;;;;;;;42.47;30.50;;;8.90;64.90;;;;;;5059517;28;20076;-53
2021/03/09 05:16:22;;;;;;;44.93;32.70;;;8.90;65.00;;;;;;5056276;28;20050;-49
2021/03/09 05:18:48;;;;;;;43.43;30.83;;;8.90;64.90;;;;;;5062162;28;20410;-50
2021/03/09 05:21:14;;;;;;;39.43;29.63;;;8.90;65.00;;;;;;5063143;28;20032;-50
2021/03/09 05:23:39;;;;;;;42.03;31.10;;;8.90;65.10;;;;;;5062042;28;20055;-54
2021/03/09 05:26:06;;;;;;;41.07;31.17;;;8.90;65.10;;;;;;5059436;28;20465;-53
2021/03/09 05:28:37;;;;;;;40.60;31.47;;;8.90;65.10;;;;;;5057865;28;20131;-51
2021/03/09 05:31:03;;;;;;;44.03;30.80;;;8.90;65.30;;;;;;5056335;28;20052;-48
2021/03/09 05:33:29;;;;;;;44.17;30.20;;;8.90;65.20;;;;;;5061416;28;20051;-48
2021/03/09 05:35:55;;;;;;;38.90;28.30;;;8.90;65.60;;;;;;5054407;28;20445;-51
2021/03/09 05:38:20;;;;;;;39.50;29.30;;;8.90;65.60;;;;;;5060700;28;20059;-53
2021/03/09 05:40:46;;;;;;;40.13;29.43;;;8.90;65.40;;;;;;5051262;28;20057;-49
2021/03/09 05:43:12;;;;;;;38.40;30.07;;;8.80;65.50;;;;;;5056807;28;20033;-50
2021/03/09 05:45:38;;;;;;;40.90;30.13;;;8.90;65.40;;;;;;5058814;28;20041;-49
2021/03/09 05:48:04;;;;;;;40.73;30.53;;;8.90;65.10;;;;;;5059572;28;20052;-51
2021/03/09 05:50:30;;;;;;;38.00;29.20;;;8.90;64.90;;;;;;5061650;28;20036;-52
2021/03/09 05:52:56;;;;;;;44.17;29.50;;;9.00;64.80;;;;;;5054991;28;20040;-51
2021/03/09 05:55:22;;;;;;;42.57;31.27;;;9.00;64.80;;;;;;5058549;28;20032;-49
2021/03/09 05:57:48;;;;;;;47.33;29.27;;;8.90;64.80;;;;;;5058733;28;20040;-52
2021/03/09 06:00:14;;;;;;;40.10;30.60;;;9.00;64.90;;;;;;5060178;28;20044;-53
2021/03/09 06:02:40;;;;;;;41.60;29.47;;;9.00;64.70;;;;;;5056340;28;20044;-51
2021/03/09 06:05:08;;;;;;;42.60;30.50;;;9.00;64.50;;;;;;5062162;28;20394;-50
2021/03/09 06:07:37;;;;;;;37.80;28.50;;;9.00;64.60;;;;;;5056253;28;20383;-53
2021/03/09 06:10:05;;;;;;;40.93;30.60;;;9.00;64.60;;;;;;5064476;28;20044;-54
2021/03/09 06:12:31;;;;;;;40.67;30.97;;;9.00;64.70;;;;;;5056727;28;20182;-50
2021/03/09 06:14:59;;;;;;;39.20;29.70;;;9.00;64.70;;;;;;5061064;28;20508;-51
2021/03/09 06:17:29;;;;;;;45.53;28.80;;;9.00;64.40;;;;;;5055680;28;20112;-49
2021/03/09 06:19:56;;;;;;;37.67;29.30;;;9.00;64.40;;;;;;5059932;28;20455;-50
2021/03/09 06:22:44;;;;;;;37.87;29.77;;;9.00;64.40;;;;;;5053106;28;20068;-49
2021/03/09 06:25:21;;;;;;;42.93;30.40;;;9.10;64.70;;;;;;5038372;28;20032;-51
2021/03/09 06:27:48;;;;;;;45.00;32.30;;;9.00;64.70;;;;;;5053347;28;20040;-50
2021/03/09 06:30:25;;;;;;;40.97;30.53;;;9.00;64.60;;;;;;5060253;28;22725;-52
2021/03/09 06:32:52;;;;;;;42.73;30.67;;;9.10;64.50;;;;;;5058010;28;20037;-49
2021/03/09 06:35:37;;;;;;;42.43;30.63;;;9.10;64.20;;;;;;5060813;28;20052;-54
2021/03/09 06:38:24;;;;;;;50.50;31.97;;;9.20;63.80;;;;;;5002524;28;20036;-52
2021/03/09 06:41:12;;;;;;;41.00;29.50;;;9.20;63.50;;;;;;5053977;28;20168;-53
2021/03/09 06:43:40;;;;;;;39.87;30.53;;;9.30;63.50;;;;;;5030773;28;20068;-50
2021/03/09 06:46:20;;;;;;;39.40;29.40;;;9.20;63.20;;;;;;5063239;28;20510;-51
2021/03/09 06:48:48;;;;;;;39.90;29.97;;;9.30;63.10;;;;;;5054330;28;20516;-54
2021/03/09 06:51:36;;;;;;;39.43;29.37;;;9.40;62.80;;;;;;5055822;28;20055;-51
2021/03/09 06:54:05;;;;;;;37.70;28.57;;;9.40;62.70;;;;;;5017580;28;20033;-49
2021/03/09 06:56:33;;;;;;;38.33;28.60;;;9.40;62.60;;;;;;5057757;28;20040;-54
2021/03/09 06:59:21;;;;;;;35.80;28.03;;;9.50;62.50;;;;;;5052177;28;20196;-49
2021/03/09 07:02:05;;;;;;;40.53;30.03;;;9.50;62.30;;;;;;5061996;28;20033;-49
2021/03/09 07:04:31;;;;;;;40.93;28.10;;;9.50;62.80;;;;;;5041314;28;20446;-53
2021/03/09 07:06:57;;;;;;;42.57;30.70;;;9.60;62.30;;;;;;5061155;28;20054;-51
2021/03/09 07:09:23;;;;;;;39.07;29.73;;;9.70;62.10;;;;;;5055606;28;20025;-54
2021/03/09 07:11:49;;;;;;;34.80;27.20;;;9.80;61.60;;;;;;5061116;28;20074;-50
2021/03/09 07:14:16;;;;;;;41.17;29.37;;;9.90;61.00;;;;;;5056130;28;20070;-51
2021/03/09 07:16:48;;;;;;;39.03;29.07;;;10.00;61.10;;;;;;5049372;28;20071;-52
2021/03/09 07:19:20;;;;;;;40.10;28.70;;;10.00;60.50;;;;;;5048132;28;20099;-49
2021/03/09 07:21:47;;;;;;;38.47;29.80;;;10.10;60.40;;;;;;5053044;28;20048;-52
2021/03/09 07:24:13;;;;;;;39.27;29.13;;;10.20;60.10;;;;;;5053697;28;20376;-49
2021/03/09 07:26:40;;;;;;;39.10;29.67;;;10.20;59.80;;;;;;5065161;28;20541;-54
2021/03/09 07:29:11;;;;;;;40.20;29.40;;;10.30;59.40;;;;;;5058202;28;20375;-53
2021/03/09 07:31:40;;;;;;;42.97;29.33;;;10.30;59.30;;;;;;5054315;28;20093;-49
2021/03/09 07:34:08;;;;;;;43.40;30.40;;;10.40;59.20;;;;;;5056879;28;20044;-52
2021/03/09 07:36:34;;;;;;;44.63;30.00;;;10.50;59.10;;;;;;5050410;28;20102;-55
2021/03/09 07:39:01;;;;;;;40.67;29.63;;;10.50;58.50;;;;;;5055554;28;20158;-52
2021/03/09 07:41:27;;;;;;;44.17;30.43;;;10.60;58.60;;;;;;5054486;28;20037;-51
2021/03/09 07:43:53;;;;;;;44.40;31.43;;;10.70;58.60;;;;;;5059446;28;20040;-50
2021/03/09 07:46:19;;;;;;;49.80;31.63;;;10.70;58.00;;;;;;5057151;28;20040;-52
2021/03/09 07:48:45;;;;;;;42.90;30.77;;;10.70;57.80;;;;;;5059286;28;20094;-52
2021/03/09 07:51:11;;;;;;;41.93;30.77;;;10.70;57.40;;;;;;5071763;28;20036;-52
2021/03/09 07:54:15;;;;;;;41.97;31.77;;;10.80;57.20;;;;;;5060879;28;20124;-54
2021/03/09 07:57:16;;;;;;;49.77;34.60;;;10.90;56.70;;;;;;5029249;28;20044;-48
2021/03/09 08:00:13;;;;;;;43.63;32.73;;;10.80;55.70;;;;;;5034579;28;20040;-49
2021/03/09 08:02:43;;;;;;;48.23;34.43;;;10.90;56.50;;;;;;5033138;28;20474;-51
2021/03/09 08:05:17;;;;;;;47.57;32.50;;;10.90;56.00;;;;;;5060394;28;20029;-52
2021/03/09 08:07:53;;;;;;;45.45;33.25;;;10.90;56.40;;;;;;5053598;28;20060;-50
2021/03/09 08:10:35;;;;;;;45.83;33.53;;;10.90;56.00;;;;;;5057992;28;20037;-50
2021/03/09 08:13:07;;;;;;;49.53;34.10;;;10.90;55.70;;;;;;5021175;28;20119;-50
2021/03/09 08:15:33;;;;;;;52.30;35.73;;;10.80;56.30;;;;;;5057674;28;20486;-55
2021/03/09 08:18:28;;;;;;;49.37;36.77;;;10.60;56.30;;;;;;5055410;28;20083;-51
2021/03/09 08:20:55;;;;;;;57.17;36.83;;;10.70;56.10;;;;;;5044403;28;20124;-53
2021/03/09 08:23:33;;;;;;;52.23;37.10;;;10.60;55.90;;;;;;5050248;28;20033;-49
2021/03/09 08:26:00;;;;;;;45.10;35.60;;;10.70;55.80;;;;;;5058875;28;20037;-49
2021/03/09 08:28:32;;;;;;;50.47;36.60;;;10.70;56.10;;;;;;5055210;28;20032;-53
2021/03/09 08:31:13;;;;;;;51.17;37.17;;;10.70;55.60;;;;;;5059464;28;20059;-53
2021/03/09 08:33:49;;;;;;;50.33;36.10;;;10.80;55.30;;;;;;5070863;28;20049;-53
2021/03/09 08:36:21;;;;;;;45.77;35.43;;;10.80;55.30;;;;;;5057539;28;20135;-52
2021/03/09 08:39:02;;;;;;;46.17;35.67;;;10.90;54.80;;;;;;5052377;28;20037;-50
2021/03/09 08:41:35;;;;;;;54.00;37.03;;;10.80;53.80;;;;;;5054338;28;20041;-51
2021/03/09 08:44:15;;;;;;;49.13;36.20;;;10.80;54.90;;;;;;5057397;28;20432;-54
2021/03/09 08:47:00;;;;;;;50.63;38.23;;;10.80;55.00;;;;;;5060733;28;20094;-51
2021/03/09 08:49:35;;;;;;;48.80;38.35;;;10.80;54.40;;;;;;5051216;28;20032;-52
2021/03/09 08:52:07;;;;;;;48.63;37.07;;;10.80;54.30;;;;;;5059294;28;20041;-49
2021/03/09 08:54:37;;;;;;;51.00;38.20;;;10.90;54.30;;;;;;5054756;28;20060;-49
2021/03/09 08:57:11;;;;;;;55.60;39.28;;;10.90;54.40;;;;;;5060734;28;20040;-50
2021/03/09 08:59:38;;;;;;;58.25;37.80;;;11.00;54.40;;;;;;5053295;28;20075;-48
2021/03/09 09:02:08;;;;;;;48.37;36.43;;;11.00;53.40;;;;;;5055941;28;20037;-51
2021/03/09 09:04:35;;;;;;;49.23;36.97;;;11.00;53.00;;;;;;5049326;28;20064;-50
2021/03/09 09:07:19;;;;;;;51.13;37.93;;;11.10;53.10;;;;;;5054362;28;20514;-49
2021/03/09 09:09:45;;;;;;;47.15;37.00;;;11.20;52.90;;;;;;5052514;28;20044;-48
2021/03/09 09:12:23;;;;;;;53.58;38.55;;;11.20;53.10;;;;;;5055625;28;20067;-48
2021/03/09 09:15:20;;;;;;;50.17;38.50;;;11.30;52.20;;;;;;5057235;28;20406;-49
2021/03/09 09:17:52;;;;;;;51.67;38.17;;;11.20;52.60;;;;;;5035003;28;20035;-48
2021/03/09 09:20:22;;;;;;;50.00;37.50;;;11.30;53.00;;;;;;5057196;28;20097;-51
2021/03/09 09:22:50;;;;;;;43.93;36.13;;;11.30;52.60;;;;;;5059046;28;20398;-49
2021/03/09 09:25:16;;;;;;;46.03;35.70;;;11.30;51.80;;;;;;5055805;28;20048;-52
2021/03/09 09:27:45;;;;;;;46.63;33.63;;;11.30;51.80;;;;;;5062048;28;20033;-49
2021/03/09 09:30:14;;;;;;;41.90;31.85;;;11.40;51.90;;;;;;5058268;28;20041;-50
2021/03/09 09:33:07;;;;;;;43.07;31.00;;;11.50;50.90;;;;;;5063616;28;20037;-49
2021/03/09 09:35:33;;;;;;;39.67;30.47;;;11.50;49.80;;;;;;5032475;28;20440;-48
2021/03/09 09:38:02;;;;;;;45.00;32.50;;;11.50;49.60;;;;;;5058765;28;20071;-48
2021/03/09 09:40:34;;;;;;;40.78;31.25;;;11.60;50.40;;;;;;5059892;28;20044;-50
2021/03/09 09:43:21;;;;;;;37.97;31.23;;;11.60;50.80;;;;;;5058662;28;20111;-48
2021/03/09 09:46:05;;;;;;;43.78;32.53;;;11.70;50.90;;;;;;5068943;28;20429;-52
2021/03/09 09:48:38;;;;;;;41.33;31.13;;;11.70;50.00;;;;;;5038034;28;20045;-47
2021/03/09 09:51:06;;;;;;;42.13;34.17;;;11.70;51.00;;;;;;5047748;28;20052;-48
2021/03/09 09:53:36;;;;;;;44.80;32.88;;;11.80;50.50;;;;;;5055773;28;20056;-50
2021/03/09 09:56:06;;;;;;;43.17;34.40;;;11.70;49.60;;;;;;5059642;28;20036;-48
2021/03/09 09:58:51;;;;;;;44.37;31.27;;;11.80;49.60;;;;;;5060768;28;20036;-48
2021/03/09 10:01:36;;;;;;;39.53;31.33;;;11.90;48.80;;;;;;5057612;28;20045;-50
2021/03/09 10:04:04;;;;;;;39.58;32.13;;;12.00;49.60;;;;;;5021136;28;20477;-48
2021/03/09 10:06:40;;;;;;;41.73;32.97;;;12.00;49.90;;;;;;5055077;28;20036;-49
2021/03/09 10:09:21;;;;;;;41.92;30.83;;;12.10;49.20;;;;;;5058673;28;20090;-51
2021/03/09 10:11:57;;;;;;;41.25;28.33;;;12.30;48.80;;;;;;5060084;28;20032;-49
2021/03/09 10:14:33;;;;;;;43.28;30.77;;;12.40;47.90;;;;;;5056084;28;20074;-50
2021/03/09 10:17:01;;;;;;;45.60;30.13;;;12.50;47.60;;;;;;5054305;28;20044;-51
2021/03/09 10:19:37;;;;;;;43.75;30.45;;;12.60;48.10;;;;;;5062026;28;20390;-51
2021/03/09 10:22:15;;;;;;;37.67;32.03;;;12.90;47.80;;;;;;5054201;28;20054;-50
2021/03/09 10:24:40;;;;;;;38.22;30.35;;;13.10;46.80;;;;;;5058922;28;20037;-48
2021/03/09 10:27:14;;;;;;;42.47;31.13;;;13.30;45.70;;;;;;5057392;28;20079;-49
2021/03/09 10:29:39;;;;;;;35.78;29.83;;;13.40;45.60;;;;;;5063044;28;20082;-50
2021/03/09 10:32:13;;;;;;;36.65;29.13;;;13.60;45.80;;;;;;5057229;28;20044;-48
2021/03/09 10:34:54;;;;;;;35.47;27.92;;;13.50;45.30;;;;;;5062929;28;20754;-49
2021/03/09 10:37:43;;;;;;;34.10;28.40;;;13.50;44.80;;;;;;5056098;28;20143;-54
2021/03/09 10:40:14;;;;;;;38.58;29.42;;;13.40;45.30;;;;;;5034704;28;20067;-51
2021/03/09 10:42:42;;;;;;;37.08;29.38;;;13.40;46.50;;;;;;5056628;28;20487;-51
2021/03/09 10:45:23;;;;;;;37.90;27.00;;;13.40;45.80;;;;;;5058933;28;20040;-48
2021/03/09 10:47:54;;;;;;;33.35;26.58;;;13.30;44.20;;;;;;5058174;28;21204;-51
2021/03/09 10:50:24;;;;;;;34.53;27.75;;;13.20;46.10;;;;;;5063451;28;20051;-53
2021/03/09 10:52:50;;;;;;;30.77;25.48;;;13.10;45.90;;;;;;5053455;28;20057;-50
2021/03/09 10:55:16;;;;;;;39.55;29.50;;;13.10;45.80;;;;;;5060646;28;20095;-54
2021/03/09 10:57:42;;;;;;;40.70;31.58;;;13.30;46.20;;;;;;5055848;28;20029;-51
2021/03/09 11:00:13;;;;;;;37.45;31.35;;;13.30;46.50;;;;;;5053543;28;20059;-50
2021/03/09 11:02:40;;;;;;;36.42;29.67;;;13.30;46.80;;;;;;5057744;28;20032;-52
2021/03/09 11:05:07;;;;;;;38.95;28.50;;;13.40;46.60;;;;;;5057066;28;20025;-52
2021/03/09 11:07:32;;;;;;;36.58;29.17;;;13.40;46.90;;;;;;5061590;28;20097;-48
2021/03/09 11:09:58;;;;;;;37.63;28.48;;;13.40;45.20;;;;;;5051273;28;20494;-49
2021/03/09 11:12:24;;;;;;;33.55;27.20;;;13.50;46.60;;;;;;5060406;28;20454;-50
2021/03/09 11:14:49;;;;;;;34.63;27.67;;;13.60;45.70;;;;;;5056037;28;20040;-64
2021/03/09 11:17:15;;;;;;;38.13;28.83;;;13.70;45.80;;;;;;5055304;28;20132;-52
2021/03/09 11:19:41;;;;;;;31.00;24.98;;;13.70;45.40;;;;;;5055235;28;20106;-52
2021/03/09 11:22:06;;;;;;;34.58;25.67;;;13.70;44.10;;;;;;5059952;28;20438;-54
2021/03/09 11:24:32;;;;;;;33.20;25.58;;;13.80;44.90;;;;;;5052282;28;20497;-54
2021/03/09 11:27:01;;;;;;;34.70;26.48;;;13.90;44.20;;;;;;5060851;28;20032;-51
2021/03/09 11:29:31;;;;;;;32.58;26.48;;;13.90;44.10;;;;;;5054557;28;20741;-50
2021/03/09 11:31:59;;;;;;;31.23;24.20;;;13.90;43.50;;;;;;5058465;28;20052;-53
2021/03/09 11:34:25;;;;;;;33.97;27.80;;;13.80;43.70;;;;;;5054686;28;20191;-53
2021/03/09 11:36:52;;;;;;;36.47;28.45;;;13.80;44.00;;;;;;5059862;28;20115;-51
2021/03/09 11:39:19;;;;;;;36.65;29.05;;;14.00;43.90;;;;;;5060610;28;20049;-50
2021/03/09 11:41:45;;;;;;;32.33;27.10;;;14.20;44.10;;;;;;5058595;28;20059;-54
2021/03/09 11:44:10;;;;;;;36.63;26.60;;;14.30;43.70;;;;;;5060261;28;20044;-54
2021/03/09 11:46:37;;;;;;;35.90;28.13;;;14.30;43.50;;;;;;5051414;28;20041;-50
2021/03/09 11:49:06;;;;;;;35.03;24.77;;;14.40;42.60;;;;;;5056354;28;20041;-52
2021/03/09 11:51:32;;;;;;;31.63;24.88;;;14.40;42.40;;;;;;5052257;28;20044;-51
2021/03/09 11:53:57;;;;;;;30.42;25.60;;;14.50;42.20;;;;;;5063157;28;20033;-52
2021/03/09 11:56:23;;;;;;;32.33;26.38;;;14.50;42.50;;;;;;5054329;28;20043;-50
2021/03/09 11:58:49;;;;;;;36.90;28.77;;;14.70;42.20;;;;;;5059550;28;20040;-51
2021/03/09 12:01:15;;;;;;;35.38;28.63;;;15.00;42.50;;;;;;5054482;28;20040;-51
2021/03/09 12:03:40;;;;;;;40.17;28.25;;;15.00;42.20;;;;;;5055901;28;20111;-51
2021/03/09 12:06:06;;;;;;;35.95;30.67;;;15.10;41.70;;;;;;5052150;28;20174;-51
2021/03/09 12:08:32;;;;;;;39.72;29.90;;;15.20;42.10;;;;;;5063203;28;20052;-50
2021/03/09 12:10:57;;;;;;;40.40;30.33;;;15.30;42.00;;;;;;5052198;28;20075;-53
2021/03/09 12:13:23;;;;;;;38.50;29.23;;;15.30;41.80;;;;;;5063037;28;20375;-50
2021/03/09 12:15:49;;;;;;;38.58;29.85;;;15.40;41.80;;;;;;5058210;28;20085;-51
2021/03/09 12:18:14;;;;;;;34.53;27.48;;;15.30;41.40;;;;;;5054850;28;20071;-55
2021/03/09 12:20:43;;;;;;;35.22;28.23;;;15.50;41.40;;;;;;5055262;28;20040;-53
2021/03/09 12:23:09;;;;;;;33.85;27.88;;;15.50;40.90;;;;;;5052106;28;20044;-55
2021/03/09 12:25:35;;;;;;;33.40;27.20;;;15.50;40.90;;;;;;5058324;28;20148;-55
2021/03/09 12:28:01;;;;;;;38.22;28.20;;;15.70;40.90;;;;;;5050445;28;20033;-54
2021/03/09 12:30:27;;;;;;;35.33;27.75;;;15.50;39.70;;;;;;5059469;28;20493;-51
2021/03/09 12:32:53;;;;;;;33.22;27.08;;;15.50;39.50;;;;;;5051704;28;20128;-51
2021/03/09 12:35:20;;;;;;;34.38;26.15;;;15.40;39.80;;;;;;5054379;28;20174;-55
2021/03/09 12:37:46;;;;;;;33.35;28.27;;;15.50;39.80;;;;;;5051668;28;20044;-50
2021/03/09 12:40:12;;;;;;;35.45;28.02;;;15.80;39.10;;;;;;5056254;28;20053;-52
2021/03/09 12:42:37;;;;;;;35.83;27.80;;;15.90;39.00;;;;;;5055884;28;20041;-52
2021/03/09 12:45:05;;;;;;;37.15;27.30;;;16.00;39.20;;;;;;5057183;28;20029;-51
2021/03/09 12:47:31;;;;;;;32.85;28.02;;;16.20;38.60;;;;;;5056031;28;20050;-51
2021/03/09 12:49:56;;;;;;;35.75;27.58;;;16.60;37.50;;;;;;5056131;28;20045;-53
2021/03/09 12:52:22;;;;;;;34.63;26.38;;;17.30;36.50;;;;;;5058332;28;20402;-50
2021/03/09 12:54:47;;;;;;;33.97;25.83;;;17.90;33.80;;;;;;5064005;28;20466;-55
2021/03/09 12:57:13;;;;;;;33.83;25.83;;;18.10;34.50;;;;;;5060680;28;20039;-53
2021/03/09 12:59:39;;;;;;;32.72;26.15;;;18.80;33.20;;;;;;5049378;28;20067;-55
2021/03/09 13:02:04;;;;;;;30.73;25.23;;;19.40;32.30;;;;;;5063193;28;20040;-54